Aviation Digital Data Service (ADDS)

Output produced by METARs form (0554 UTC 20 September 2014)
found at http://aviationweather.gov/adds/metars/
 
KAUG 200521Z 2006/2106 20004KT P6SM SCT250 
     FM201500 20008G15KT P6SM BKN250 
     FM202100 20006KT P6SM BKN120 
     FM210300 20004KT 2SM BR BKN002